YZA weather

Cache Creek-Ashcroft Regional Airport
Cache Creek, British Columbia, Canada

Public forecast

Using degrees Celsius for public forecast. Weather courtesy of forecast.io.

METAR (pilot weather report)

Closest report is Kamloops Airport, 33.6 nm (62.3 km) E. Retrieved 2019/05/26 17:00 UTC (2 minutes ago):

CYKA 261700Z 21004KT 180V350 40SM FEW070 SCT240 16/10 A2996 RMK AC1CI3 AC TR SLP151 DENSITY ALT 1500FT

TAF (pilot weather forecast)

Closest forecast is Kamloops Airport, 33.6 nm (62.3 km) E. Retrieved 2019/05/26 13:39 UTC (3 hours ago):

TAF CYKA 261238Z 2613/2701 28006KT P6SM FEW100 PROB30 2613/2615 1SM BR RMK NXT FCST BY 261900Z